Time;durP1;ratioP1;P1;durP2;ratioP2;P2;SDS_P1;SDS_P2;PMS_P1;PMS_P2;Temp;Humidity;BMP_temperature;BMP_pressure;BME280_temperature;BME280_humidity;BME280_pressure;Samples;Min_cycle;Max_cycle;Signal;HPM_P1;HPM_P2
2022/11/05 00:32:31;;;;;;;2.75;1.83;;;7.70;99.90;;;;;;20625848;28;20046;-79
2022/11/05 00:52:59;;;;;;;13.20;2.22;;;7.60;99.90;;;;;;20674823;28;20545;-79
2022/11/05 01:03:03;;;;;;;2.25;1.20;;;7.60;99.90;;;;;;20615529;28;20158;-79
2022/11/05 01:13:04;;;;;;;2.17;1.05;;;7.50;99.90;;;;;;20616290;28;20055;-79
2022/11/05 01:23:05;;;;;;;4.28;1.73;;;7.40;99.90;;;;;;20635945;28;20185;-79
2022/11/05 01:33:06;;;;;;;2.88;1.58;;;7.40;99.90;;;;;;20537740;28;20594;-79
2022/11/05 01:43:15;;;;;;;3.10;1.30;;;7.30;99.90;;;;;;20565501;28;20038;-79
2022/11/05 01:53:29;;;;;;;5.63;2.28;;;7.20;99.90;;;;;;20569614;28;20045;-79
2022/11/05 02:03:31;;;;;;;2.67;1.40;;;7.30;99.90;;;;;;20611889;28;20531;-79
2022/11/05 02:13:32;;;;;;;2.80;1.17;;;7.30;99.90;;;;;;20588245;28;20128;-78
2022/11/05 02:23:47;;;;;;;2.38;1.30;;;7.30;99.90;;;;;;20625173;28;20204;-79
2022/11/05 02:33:57;;;;;;;4.75;2.28;;;7.30;99.90;;;;;;20622960;28;20401;-79
2022/11/05 02:44:23;;;;;;;4.53;1.17;;;7.10;99.90;;;;;;20617304;28;20051;-79
2022/11/05 02:54:28;;;;;;;1.83;1.05;;;6.90;99.90;;;;;;20648883;28;20123;-79
2022/11/05 03:04:31;;;;;;;1.63;0.60;;;6.70;99.90;;;;;;20580984;28;20086;-79
2022/11/05 03:14:51;;;;;;;3.80;1.52;;;6.80;99.90;;;;;;20601489;28;20082;-79
2022/11/05 03:25:01;;;;;;;3.42;1.38;;;6.90;99.90;;;;;;20593866;28;21412;-79
2022/11/05 03:35:12;;;;;;;2.50;1.40;;;7.00;99.90;;;;;;20639468;28;20066;-79
2022/11/05 03:45:21;;;;;;;6.07;1.80;;;7.00;99.90;;;;;;20683089;28;20094;-79
2022/11/05 03:55:28;;;;;;;6.53;2.08;;;7.10;99.90;;;;;;20650877;28;20117;-79
2022/11/05 04:05:29;;;;;;;3.77;1.90;;;7.20;99.90;;;;;;20672272;28;20557;-79
2022/11/05 04:17:04;;;;;;;4.22;1.40;;;7.30;99.90;;;;;;20689923;28;20105;-79
2022/11/05 04:25:51;;;;;;;5.05;1.15;;;7.40;99.90;;;;;;20731091;28;20917;-79
2022/11/05 04:35:52;;;;;;;1.98;0.70;;;7.40;99.90;;;;;;20709929;28;20054;-79
2022/11/05 04:45:53;;;;;;;2.83;1.00;;;7.60;99.90;;;;;;20701012;28;20046;-79
2022/11/05 04:55:54;;;;;;;1.50;0.75;;;7.70;99.90;;;;;;20748450;28;20050;-79
2022/11/05 05:05:58;;;;;;;1.10;0.77;;;7.70;99.90;;;;;;20746727;28;20100;-79
2022/11/05 05:16:05;;;;;;;1.05;0.50;;;7.60;99.90;;;;;;20726687;28;20079;-79
2022/11/05 05:26:06;;;;;;;2.17;0.97;;;7.50;99.90;;;;;;20761634;28;20027;-79
2022/11/05 05:36:07;;;;;;;1.92;1.10;;;7.50;99.90;;;;;;20738357;28;20026;-79
2022/11/05 05:46:14;;;;;;;5.28;1.58;;;7.60;99.90;;;;;;20731308;28;20659;-79
2022/11/05 05:56:18;;;;;;;2.47;0.93;;;7.50;99.90;;;;;;20738348;28;20023;-79
2022/11/05 06:06:19;;;;;;;4.93;1.48;;;7.50;99.90;;;;;;20729013;28;20039;-79
2022/11/05 06:16:20;;;;;;;2.30;0.95;;;7.60;99.90;;;;;;20715397;28;20055;-79
2022/11/05 06:26:21;;;;;;;1.77;0.90;;;7.50;99.90;;;;;;20723133;28;20121;-79
2022/11/05 06:36:22;;;;;;;2.25;1.05;;;7.50;99.90;;;;;;20701962;28;20094;-79
2022/11/05 06:46:23;;;;;;;2.05;0.82;;;7.40;99.90;;;;;;20691195;28;20054;-79
2022/11/05 06:56:24;;;;;;;4.22;1.75;;;7.30;99.90;;;;;;20744872;28;20046;-79
2022/11/05 07:06:28;;;;;;;2.85;1.50;;;7.20;99.90;;;;;;20835558;23;20049;-38
2022/11/05 07:16:29;;;;;;;4.28;2.20;;;7.10;99.90;;;;;;20896214;28;20126;-38
2022/11/05 07:26:30;;;;;;;3.55;2.05;;;7.10;99.90;;;;;;20949731;28;20040;-39
2022/11/05 07:36:31;;;;;;;4.07;1.92;;;7.20;99.90;;;;;;20895698;28;20079;-39
2022/11/05 07:46:32;;;;;;;4.28;2.22;;;7.40;99.90;;;;;;20940401;28;20614;-39
2022/11/05 07:56:33;;;;;;;4.35;2.55;;;7.60;99.90;;;;;;20913502;28;20052;-39
2022/11/05 08:06:34;;;;;;;4.13;2.60;;;7.70;99.90;;;;;;20886544;28;21519;-39
2022/11/05 08:16:35;;;;;;;5.60;2.65;;;8.00;99.90;;;;;;20870725;28;20615;-39
2022/11/05 08:26:36;;;;;;;5.03;2.75;;;8.20;99.90;;;;;;20872215;28;20263;-39
2022/11/05 08:36:40;;;;;;;5.63;3.25;;;8.50;99.90;;;;;;20860336;28;20052;-39
2022/11/05 08:46:41;;;;;;;4.68;2.47;;;8.80;99.90;;;;;;20850177;28;20197;-39
2022/11/05 08:56:43;;;;;;;4.32;2.25;;;9.00;99.90;;;;;;20853652;28;20052;-39
2022/11/05 09:06:44;;;;;;;3.45;2.30;;;9.10;99.90;;;;;;20916475;28;20114;-39
2022/11/05 09:16:45;;;;;;;4.80;2.00;;;9.20;99.90;;;;;;20933858;28;20060;-39
2022/11/05 09:26:46;;;;;;;2.47;1.55;;;9.30;99.90;;;;;;20933190;28;20159;-39
2022/11/05 09:36:47;;;;;;;7.65;2.47;;;9.40;99.90;;;;;;20926916;28;21185;-40
2022/11/05 09:46:58;;;;;;;4.80;2.20;;;9.60;99.90;;;;;;20918771;28;20082;-39
2022/11/05 09:57:01;;;;;;;3.47;2.08;;;9.90;99.90;;;;;;20917788;28;20259;-39
2022/11/05 10:07:06;;;;;;;2.53;1.45;;;10.20;99.90;;;;;;20930698;28;20136;-39
2022/11/05 10:17:23;;;;;;;2.70;1.33;;;10.40;99.90;;;;;;20936526;28;20159;-39
2022/11/05 10:27:29;;;;;;;1.98;1.02;;;10.60;99.90;;;;;;20945402;28;20123;-39
2022/11/05 10:37:32;;;;;;;2.90;1.25;;;10.90;99.90;;;;;;20884767;28;20043;-39
2022/11/05 10:47:53;;;;;;;2.05;1.13;;;11.00;99.90;;;;;;20921507;28;20898;-39
2022/11/05 10:58:16;;;;;;;3.00;0.90;;;11.10;99.90;;;;;;20943965;28;20075;-39
2022/11/05 11:08:22;;;;;;;3.55;1.40;;;11.20;99.90;;;;;;20955137;28;20052;-39
2022/11/05 11:18:36;;;;;;;5.07;1.17;;;11.30;99.90;;;;;;20960087;28;20198;-39
2022/11/05 11:28:43;;;;;;;1.80;1.00;;;11.30;99.90;;;;;;20959122;28;20284;-39
2022/11/05 11:38:44;;;;;;;3.05;0.90;;;11.50;99.90;;;;;;20959032;28;20487;-39
2022/11/05 11:48:47;;;;;;;4.45;1.23;;;11.70;99.90;;;;;;20951152;28;20419;-39
2022/11/05 11:58:56;;;;;;;1.80;0.75;;;12.20;99.90;;;;;;20953112;28;20053;-39
2022/11/05 12:09:16;;;;;;;5.40;1.40;;;12.40;99.90;;;;;;20896780;28;20052;-39
2022/11/05 12:20:00;;;;;;;1.90;0.73;;;12.60;99.90;;;;;;20882612;28;20138;-39
2022/11/05 12:30:16;;;;;;;3.45;1.38;;;12.70;99.90;;;;;;20654403;28;20995;-39
2022/11/05 12:40:41;;;;;;;1.27;0.50;;;12.70;99.90;;;;;;20861164;28;20064;-39
2022/11/05 12:50:51;;;;;;;4.00;1.20;;;12.20;99.90;;;;;;20832343;28;20789;-39
2022/11/05 13:01:06;;;;;;;2.70;0.85;;;12.10;99.90;;;;;;20842895;28;20453;-39
2022/11/05 13:11:34;;;;;;;2.30;1.10;;;12.20;99.90;;;;;;20895785;28;20203;-39
2022/11/05 13:21:37;;;;;;;2.05;0.70;;;12.10;99.90;;;;;;20888314;28;20925;-40
2022/11/05 13:31:44;;;;;;;2.25;0.80;;;11.90;99.90;;;;;;20897841;28;20173;-39
2022/11/05 13:42:03;;;;;;;1.27;0.60;;;12.00;99.90;;;;;;20909075;28;20480;-39
2022/11/05 13:52:24;;;;;;;1.50;0.65;;;12.10;99.90;;;;;;20905878;28;20258;-39
2022/11/05 14:02:35;;;;;;;2.05;0.90;;;12.00;99.90;;;;;;20895497;28;20855;-40
2022/11/05 14:12:39;;;;;;;3.92;1.88;;;12.00;99.90;;;;;;20895147;28;21105;-39
2022/11/05 14:22:40;;;;;;;2.53;1.42;;;11.80;99.90;;;;;;20863667;28;20886;-39
2022/11/05 14:32:44;;;;;;;1.90;0.90;;;11.60;99.90;;;;;;20883143;28;20073;-39
2022/11/05 14:43:02;;;;;;;5.15;2.22;;;11.60;99.90;;;;;;20852014;28;20462;-39
2022/11/05 14:53:23;;;;;;;2.17;1.00;;;11.40;99.90;;;;;;20867712;28;20079;-40
2022/11/05 15:03:39;;;;;;;2.90;0.90;;;11.40;99.90;;;;;;20874793;28;21313;-38
2022/11/05 15:14:03;;;;;;;2.88;1.17;;;11.50;99.90;;;;;;20883387;28;20891;-39
2022/11/05 15:24:04;;;;;;;2.38;0.90;;;11.50;99.90;;;;;;20814329;28;20121;-39
2022/11/05 15:34:30;;;;;;;2.10;1.00;;;11.30;99.90;;;;;;20871423;28;20661;-39
2022/11/05 15:44:36;;;;;;;3.33;1.40;;;11.30;99.90;;;;;;20867425;28;20905;-39
2022/11/05 15:54:37;;;;;;;2.65;0.90;;;11.10;99.90;;;;;;20856752;28;20117;-39
2022/11/05 16:04:39;;;;;;;2.67;1.00;;;11.10;99.90;;;;;;20848371;28;20088;-38
2022/11/05 16:14:40;;;;;;;2.22;0.93;;;11.10;99.90;;;;;;20830256;28;20076;-39
2022/11/05 16:24:43;;;;;;;3.00;1.40;;;11.00;99.90;;;;;;20827935;28;20693;-39
2022/11/05 16:34:53;;;;;;;4.18;1.30;;;11.00;99.90;;;;;;20834805;28;20447;-39
2022/11/05 16:44:54;;;;;;;3.60;1.48;;;10.80;99.90;;;;;;20836180;28;20574;-39
2022/11/05 16:54:55;;;;;;;3.95;1.58;;;10.70;99.90;;;;;;20824642;28;20156;-39
2022/11/05 17:04:56;;;;;;;3.75;0.68;;;10.70;99.90;;;;;;20887169;28;20233;-39
2022/11/05 17:14:57;;;;;;;3.28;1.30;;;10.70;99.90;;;;;;20934096;28;20180;-39
2022/11/05 17:24:58;;;;;;;3.50;1.40;;;10.80;99.90;;;;;;20933846;28;20040;-39
2022/11/05 17:34:59;;;;;;;3.35;1.20;;;10.70;99.90;;;;;;20926478;28;20036;-39
2022/11/05 17:45:00;;;;;;;7.25;3.25;;;10.70;99.90;;;;;;20935257;28;20040;-39
2022/11/05 17:55:04;;;;;;;5.18;1.63;;;10.70;99.90;;;;;;20922207;28;20139;-38
2022/11/05 18:05:05;;;;;;;4.72;2.03;;;10.70;99.90;;;;;;20918744;28;20505;-38
2022/11/05 18:15:07;;;;;;;4.65;2.25;;;10.70;99.90;;;;;;20912815;28;20144;-39
2022/11/05 18:25:10;;;;;;;3.15;1.60;;;10.70;99.90;;;;;;20921684;28;20157;-39
2022/11/05 18:35:13;;;;;;;5.43;1.48;;;10.60;99.90;;;;;;20916093;28;20084;-39
2022/11/05 18:45:14;;;;;;;3.45;1.70;;;10.70;99.90;;;;;;20936943;28;20066;-39
2022/11/05 18:55:15;;;;;;;6.43;1.90;;;10.60;99.90;;;;;;20946899;28;21372;-40
2022/11/05 19:05:16;;;;;;;5.13;2.00;;;10.70;99.90;;;;;;20926120;28;20583;-39
2022/11/05 19:15:17;;;;;;;3.90;2.53;;;10.70;99.90;;;;;;20933562;28;20519;-40
2022/11/05 19:25:18;;;;;;;3.53;1.45;;;10.60;99.90;;;;;;20928144;28;20137;-40
2022/11/05 19:35:19;;;;;;;7.45;2.15;;;10.60;99.90;;;;;;20929601;28;20044;-40
2022/11/05 19:45:20;;;;;;;6.28;1.40;;;10.60;99.90;;;;;;20933457;28;20076;-40
2022/11/05 19:55:21;;;;;;;3.72;1.65;;;10.70;99.90;;;;;;20924331;28;20261;-40
2022/11/05 20:05:22;;;;;;;3.95;1.77;;;10.70;99.90;;;;;;20919561;28;20117;-40
2022/11/05 20:15:23;;;;;;;2.60;1.40;;;10.70;99.90;;;;;;20915825;28;20036;-40
2022/11/05 20:25:24;;;;;;;3.67;1.40;;;10.70;99.90;;;;;;20931159;28;21927;-40
2022/11/05 20:35:25;;;;;;;2.67;1.45;;;10.60;99.90;;;;;;20923139;28;20053;-40
2022/11/05 20:45:26;;;;;;;3.58;1.77;;;10.60;99.90;;;;;;20919002;28;20171;-40
2022/11/05 20:55:27;;;;;;;3.38;1.70;;;10.50;99.90;;;;;;20930237;28;20177;-40
2022/11/05 21:05:28;;;;;;;4.85;2.75;;;10.50;99.90;;;;;;20918327;28;20036;-40
2022/11/05 21:15:29;;;;;;;5.32;1.63;;;10.40;99.90;;;;;;20928982;28;20049;-39
2022/11/05 21:25:30;;;;;;;5.07;2.45;;;10.40;99.90;;;;;;20923156;28;20043;-40
2022/11/05 21:35:31;;;;;;;4.15;1.48;;;10.40;99.90;;;;;;20919436;28;20072;-40
2022/11/05 21:45:32;;;;;;;3.58;1.60;;;10.30;99.90;;;;;;20918344;28;20124;-40
2022/11/05 22:05:55;;;;;;;2.20;0.98;;;10.30;99.90;;;;;;20920557;28;20056;-39
2022/11/05 22:15:56;;;;;;;4.50;2.10;;;10.30;99.90;;;;;;20940145;28;20855;-40
2022/11/05 22:25:59;;;;;;;2.72;1.38;;;10.30;99.90;;;;;;20960383;28;20525;-40
2022/11/05 22:36:02;;;;;;;8.52;2.13;;;10.40;99.90;;;;;;20955468;28;20618;-40
2022/11/05 22:46:08;;;;;;;4.13;1.17;;;10.30;99.90;;;;;;20955984;28;20069;-40
2022/11/05 22:56:12;;;;;;;3.60;1.88;;;10.40;99.90;;;;;;20959571;28;20048;-39
2022/11/05 23:26:58;;;;;;;3.28;1.52;;;10.30;99.90;;;;;;20953909;28;20032;-40
2022/11/05 23:57:39;;;;;;;2.90;1.25;;;10.50;99.90;;;;;;20941283;28;20911;-40
